createdAt,value
2022-09-06T00:01:12.431Z,101850.25
2022-09-06T00:03:42.269Z,101850.38
2022-09-06T00:06:11.675Z,101848.94
2022-09-06T00:08:39.693Z,101842.81
2022-09-06T00:11:07.642Z,101842.25
2022-09-06T00:13:35.340Z,101840.41
2022-09-06T00:16:08.561Z,101834.69
2022-09-06T00:18:36.774Z,101833.00
2022-09-06T00:21:13.937Z,101831.34
2022-09-06T00:23:41.726Z,101843.09
2022-09-06T00:26:09.490Z,101831.84
2022-09-06T00:28:37.054Z,101838.81
2022-09-06T00:31:10.393Z,101822.22
2022-09-06T00:33:38.111Z,101830.25
2022-09-06T00:36:07.513Z,101825.97
2022-09-06T00:38:35.477Z,101830.25
2022-09-06T00:41:03.283Z,101831.50
2022-09-06T00:43:30.836Z,101821.41
2022-09-06T00:45:58.707Z,101822.38
2022-09-06T00:48:26.334Z,101822.63
2022-09-06T00:50:56.865Z,101825.50
2022-09-06T00:53:26.725Z,101826.69
2022-09-06T00:55:55.458Z,101825.03
2022-09-06T00:58:23.083Z,101828.75
2022-09-06T01:00:50.709Z,101836.91
2022-09-06T01:03:19.475Z,101838.00
2022-09-06T01:06:02.300Z,101836.66
2022-09-06T01:08:46.076Z,101838.72
2022-09-06T01:11:49.277Z,101841.59
2022-09-06T01:14:30.444Z,101831.16
2022-09-06T01:17:04.429Z,101829.50
2022-09-06T01:19:52.490Z,101827.91
2022-09-06T01:22:38.521Z,101822.88
2022-09-06T01:25:25.784Z,101827.88
2022-09-06T01:28:17.762Z,101833.66
2022-09-06T01:30:52.012Z,101832.19
2022-09-06T01:33:25.639Z,101829.69
2022-09-06T01:36:00.360Z,101828.38
2022-09-06T01:38:28.620Z,101820.44
2022-09-06T01:40:56.510Z,101819.97
2022-09-06T01:43:38.950Z,101814.22
2022-09-06T01:46:20.576Z,101813.97
2022-09-06T01:49:15.302Z,101814.28
2022-09-06T01:51:57.812Z,101816.69
2022-09-06T01:54:33.339Z,101805.91
2022-09-06T01:57:12.648Z,101813.09
2022-09-06T01:59:56.560Z,101809.13
2022-09-06T02:02:33.851Z,101813.19
2022-09-06T02:05:07.761Z,101813.56
2022-09-06T02:07:37.753Z,101811.97
2022-09-06T02:10:09.825Z,101811.03
2022-09-06T02:12:41.664Z,101802.53
2022-09-06T02:15:15.974Z,101806.31
2022-09-06T02:17:48.585Z,101803.09
2022-09-06T02:20:19.652Z,101807.88
2022-09-06T02:22:50.465Z,101805.34
2022-09-06T02:25:24.672Z,101803.53
2022-09-06T02:27:53.778Z,101804.50
2022-09-06T02:30:22.855Z,101808.31
2022-09-06T02:32:59.171Z,101809.78
2022-09-06T02:35:27.162Z,101797.31
2022-09-06T02:37:55.920Z,101803.19
2022-09-06T02:40:23.576Z,101790.75
2022-09-06T02:42:51.131Z,101806.16
2022-09-06T02:45:18.654Z,101808.31
2022-09-06T02:47:47.516Z,101800.25
2022-09-06T02:50:15.409Z,101801.09
2022-09-06T02:52:43.313Z,101796.56
2022-09-06T02:55:11.327Z,101799.91
2022-09-06T02:57:39.603Z,101813.69
2022-09-06T03:00:08.408Z,101805.69
2022-09-06T03:02:36.327Z,101802.31
2022-09-06T03:05:05.965Z,101795.81
2022-09-06T03:07:33.894Z,101788.03
2022-09-06T03:10:01.757Z,101794.88
2022-09-06T03:12:29.634Z,101794.66
2022-09-06T03:14:57.909Z,101791.50
2022-09-06T03:17:25.735Z,101791.63
2022-09-06T03:19:53.524Z,101791.03
2022-09-06T03:22:22.556Z,101799.75
2022-09-06T03:24:50.341Z,101795.44
2022-09-06T03:27:18.334Z,101789.22
2022-09-06T03:29:46.089Z,101792.06
2022-09-06T03:32:13.803Z,101794.44
2022-09-06T03:34:41.462Z,101788.44
2022-09-06T03:37:09.410Z,101785.81
2022-09-06T03:39:38.594Z,101779.47
2022-09-06T03:42:06.599Z,101778.41
2022-09-06T03:44:34.227Z,101781.38
2022-09-06T03:47:02.028Z,101776.66
2022-09-06T03:49:29.791Z,101773.16
2022-09-06T03:51:57.493Z,101778.16
2022-09-06T03:54:25.593Z,101776.50
2022-09-06T03:56:54.927Z,101774.31
2022-09-06T03:59:22.653Z,101768.53
2022-09-06T04:01:50.414Z,101768.03
2022-09-06T04:04:18.256Z,101779.59
2022-09-06T04:06:45.991Z,101780.22
2022-09-06T04:09:14.843Z,101780.00
2022-09-06T04:11:45.019Z,101786.97
2022-09-06T04:14:14.354Z,101792.13
2022-09-06T04:16:42.499Z,101783.34
2022-09-06T04:19:10.351Z,101777.03
2022-09-06T04:21:38.759Z,101767.66
2022-09-06T04:24:07.006Z,101776.25
2022-09-06T04:26:34.989Z,101767.00
2022-09-06T04:29:02.697Z,101765.34
2022-09-06T04:31:31.890Z,101765.22
2022-09-06T04:33:59.558Z,101770.38
2022-09-06T04:36:27.304Z,101761.28
2022-09-06T04:38:55.868Z,101764.91
2022-09-06T04:41:23.599Z,101762.97
2022-09-06T04:43:51.503Z,101760.25
2022-09-06T04:46:22.463Z,101757.50
2022-09-06T04:48:52.856Z,101759.63
2022-09-06T04:51:21.528Z,101760.47
2022-09-06T04:53:49.817Z,101752.44
2022-09-06T04:56:19.640Z,101754.38
2022-09-06T04:58:48.599Z,101758.97
2022-09-06T05:01:17.374Z,101750.19
2022-09-06T05:03:45.186Z,101757.06
2022-09-06T05:06:20.813Z,101751.59
2022-09-06T05:08:49.271Z,101748.75
2022-09-06T05:11:17.060Z,101753.91
2022-09-06T05:13:46.432Z,101750.97
2022-09-06T05:16:14.301Z,101749.59
2022-09-06T05:18:42.032Z,101751.81
2022-09-06T05:21:09.789Z,101752.53
2022-09-06T05:23:39.107Z,101744.84
2022-09-06T05:26:07.162Z,101745.59
2022-09-06T05:28:34.890Z,101747.47
2022-09-06T05:31:09.855Z,101742.31
2022-09-06T05:33:37.584Z,101748.00
2022-09-06T05:36:06.726Z,101743.59
2022-09-06T05:38:34.531Z,101757.97
2022-09-06T05:41:03.598Z,101755.13
2022-09-06T05:43:31.326Z,101756.28
2022-09-06T05:45:59.496Z,101752.16
2022-09-06T05:48:27.536Z,101750.53
2022-09-06T05:51:01.609Z,101753.56
2022-09-06T05:53:34.818Z,101756.91
2022-09-06T05:56:04.697Z,101753.00
2022-09-06T05:58:33.015Z,101753.63
2022-09-06T06:01:08.964Z,101755.16
2022-09-06T06:03:36.687Z,101752.53
2022-09-06T06:06:04.329Z,101746.00
2022-09-06T06:08:32.111Z,101754.91
2022-09-06T06:11:01.152Z,101752.09
2022-09-06T06:13:34.795Z,101742.88
2022-09-06T06:16:03.376Z,101744.38
2022-09-06T06:18:31.121Z,101736.38
2022-09-06T06:21:09.028Z,101719.63
2022-09-06T06:23:36.679Z,101723.81
2022-09-06T06:26:05.105Z,101724.44
2022-09-06T06:28:35.570Z,101732.25
2022-09-06T06:31:03.442Z,101736.41
2022-09-06T06:33:31.258Z,101731.69
2022-09-06T06:36:00.592Z,101737.56
2022-09-06T06:38:32.870Z,101734.25
2022-09-06T06:41:05.800Z,101734.63
2022-09-06T06:43:38.100Z,101732.44
2022-09-06T06:46:06.461Z,101732.25
2022-09-06T06:48:34.349Z,101742.03
2022-09-06T06:51:02.290Z,101726.69
2022-09-06T06:53:30.263Z,101733.66
2022-09-06T06:55:57.986Z,101726.44
2022-09-06T06:58:26.956Z,101725.19
2022-09-06T07:00:56.093Z,101738.84
2022-09-06T07:03:23.802Z,101727.72
2022-09-06T07:08:39.096Z,101730.25
2022-09-06T07:11:07.926Z,101721.13
2022-09-06T07:13:35.682Z,101726.25
2022-09-06T07:16:13.440Z,101722.59
2022-09-06T07:18:42.262Z,101728.00
2022-09-06T07:24:08.216Z,101735.13
2022-09-06T07:26:38.541Z,101731.97
2022-09-06T07:29:07.359Z,101732.16
2022-09-06T07:34:26.215Z,101741.34
2022-09-06T07:36:54.199Z,101747.56
2022-09-06T07:39:22.441Z,101741.09
2022-09-06T07:41:50.296Z,101739.81
2022-09-06T07:44:17.947Z,101738.47
2022-09-06T07:46:47.133Z,101741.09
2022-09-06T07:49:15.188Z,101740.13
2022-09-06T07:51:43.131Z,101741.75
2022-09-06T07:54:30.026Z,101742.53
2022-09-06T07:56:58.465Z,101744.84
2022-09-06T07:59:27.635Z,101738.09
2022-09-06T08:01:56.829Z,101744.66
2022-09-06T08:04:24.887Z,101741.97
2022-09-06T08:09:41.243Z,101732.75
2022-09-06T08:12:09.733Z,101729.16
2022-09-06T08:14:37.476Z,101721.28
2022-09-06T08:17:06.849Z,101716.03
2022-09-06T08:19:35.558Z,101717.28
2022-09-06T08:22:04.545Z,101715.47
2022-09-06T08:24:35.819Z,101724.75
2022-09-06T08:27:03.716Z,101731.97
2022-09-06T08:29:31.604Z,101721.63
2022-09-06T08:31:59.424Z,101736.47
2022-09-06T08:34:28.584Z,101737.47
2022-09-06T08:36:56.579Z,101731.97
2022-09-06T08:39:24.530Z,101735.97
2022-09-06T08:41:56.897Z,101734.13
2022-09-06T08:47:17.313Z,101723.13
2022-09-06T08:49:54.932Z,101724.00
2022-09-06T08:53:15.743Z,101726.22
2022-09-06T08:55:38.831Z,101717.38
2022-09-06T08:58:26.088Z,101715.63
2022-09-06T09:00:59.357Z,101718.94
2022-09-06T09:03:33.796Z,101707.38
2022-09-06T09:06:05.451Z,101704.91
2022-09-06T09:08:40.853Z,101709.50
2022-09-06T09:11:11.717Z,101714.41
2022-09-06T09:13:50.338Z,101705.34
2022-09-06T09:16:18.769Z,101703.31
2022-09-06T09:18:50.208Z,101698.97
2022-09-06T09:21:24.708Z,101689.63
2022-09-06T09:23:58.965Z,101685.41
2022-09-06T09:26:29.414Z,101684.94
2022-09-06T09:29:05.748Z,101683.63
2022-09-06T09:31:39.261Z,101679.94
2022-09-06T09:34:12.490Z,101683.47
2022-09-06T09:39:36.144Z,101667.47
2022-09-06T09:42:03.911Z,101669.31
2022-09-06T09:44:31.875Z,101670.47
2022-09-06T09:46:59.811Z,101674.50
2022-09-06T09:49:30.584Z,101668.13
2022-09-06T09:52:11.512Z,101659.16
2022-09-06T09:54:42.163Z,101661.16
2022-09-06T09:57:12.179Z,101646.00
2022-09-06T09:59:45.627Z,101650.81
2022-09-06T10:02:25.597Z,101644.47
2022-09-06T10:04:54.923Z,101648.81
2022-09-06T10:07:26.046Z,101643.00
2022-09-06T10:10:00.763Z,101651.97
2022-09-06T10:12:31.183Z,101643.47
2022-09-06T10:15:02.448Z,101638.47
2022-09-06T10:17:36.386Z,101642.81
2022-09-06T10:20:09.211Z,101641.66
2022-09-06T10:22:51.690Z,101643.81
2022-09-06T10:25:38.861Z,101636.47
2022-09-06T10:28:22.294Z,101644.31
2022-09-06T10:31:08.668Z,101638.81
2022-09-06T10:33:49.682Z,101636.56
2022-09-06T10:36:21.637Z,101625.75
2022-09-06T10:38:58.357Z,101621.94
2022-09-06T10:41:40.506Z,101618.78
2022-09-06T10:44:22.205Z,101613.28
2022-09-06T10:46:56.582Z,101613.56
2022-09-06T10:49:24.474Z,101608.72
2022-09-06T10:51:58.053Z,101614.97
2022-09-06T10:54:27.244Z,101608.41
2022-09-06T10:56:58.902Z,101604.75
2022-09-06T11:02:14.028Z,101598.63
2022-09-06T11:07:35.001Z,101595.41
2022-09-06T11:10:14.395Z,101601.09
2022-09-06T11:12:46.775Z,101603.44
2022-09-06T11:15:16.948Z,101604.31
2022-09-06T11:17:50.800Z,101600.50
2022-09-06T11:20:28.628Z,101601.00
2022-09-06T11:23:24.332Z,101596.63
2022-09-06T11:26:10.487Z,101595.78
2022-09-06T11:28:44.956Z,101590.25
2022-09-06T11:34:21.857Z,101588.06
2022-09-06T11:36:51.588Z,101590.72
2022-09-06T11:43:04.326Z,101584.47
2022-09-06T11:45:45.518Z,101578.16
2022-09-06T11:49:02.163Z,101579.19
2022-09-06T11:51:36.141Z,101578.16
2022-09-06T11:54:26.818Z,101577.31
2022-09-06T11:56:59.578Z,101577.97
2022-09-06T11:59:39.004Z,101573.47
2022-09-06T12:02:28.908Z,101573.16
2022-09-06T12:05:18.733Z,101574.13
2022-09-06T12:08:24.684Z,101571.78
2022-09-06T12:10:59.267Z,101567.66
2022-09-06T12:13:48.619Z,101564.63
2022-09-06T12:16:19.171Z,101565.47
2022-09-06T12:19:01.803Z,101566.78
2022-09-06T12:21:39.336Z,101566.28
2022-09-06T12:24:09.176Z,101562.50
2022-09-06T12:26:55.692Z,101567.81
2022-09-06T12:29:26.589Z,101556.81
2022-09-06T12:31:58.242Z,101555.31
2022-09-06T12:34:30.081Z,101554.34
2022-09-06T12:36:59.540Z,101557.34
2022-09-06T12:39:28.084Z,101545.16
2022-09-06T12:41:58.294Z,101550.16
2022-09-06T12:44:32.609Z,101553.00
2022-09-06T12:47:07.068Z,101552.84
2022-09-06T12:49:36.030Z,101548.34
2022-09-06T12:52:12.267Z,101539.19
2022-09-06T12:54:46.244Z,101536.69
2022-09-06T12:57:18.219Z,101542.53
2022-09-06T12:59:54.736Z,101532.84
2022-09-06T13:02:30.836Z,101536.72
2022-09-06T13:05:05.413Z,101533.38
2022-09-06T13:07:35.502Z,101520.19
2022-09-06T13:10:04.121Z,101525.50
2022-09-06T13:12:34.756Z,101521.63
2022-09-06T13:15:08.654Z,101522.78
2022-09-06T13:17:38.538Z,101505.38
2022-09-06T13:20:15.075Z,101503.69
2022-09-06T13:22:48.171Z,101505.78
2022-09-06T13:25:23.636Z,101499.94
2022-09-06T13:27:57.517Z,101498.56
2022-09-06T13:30:37.844Z,101505.56
2022-09-06T13:33:08.475Z,101512.09
2022-09-06T13:35:39.096Z,101496.13
2022-09-06T13:38:33.664Z,101503.03
2022-09-06T13:41:17.398Z,101490.06
2022-09-06T13:43:48.061Z,101494.09
2022-09-06T13:46:16.154Z,101487.09
2022-09-06T13:48:45.317Z,101490.25
2022-09-06T13:51:13.040Z,101490.28
2022-09-06T13:53:40.822Z,101501.13
2022-09-06T13:56:09.054Z,101499.19
2022-09-06T13:58:37.016Z,101507.69
2022-09-06T14:01:08.656Z,101506.88
2022-09-06T14:03:38.138Z,101501.81
2022-09-06T14:06:08.095Z,101492.13
2022-09-06T14:08:56.212Z,101493.63
2022-09-06T14:11:25.778Z,101486.00
2022-09-06T14:13:53.567Z,101492.16
2022-09-06T14:16:21.982Z,101498.47
2022-09-06T14:18:51.927Z,101506.13
2022-09-06T14:21:21.211Z,101493.47
2022-09-06T14:23:51.457Z,101483.84
2022-09-06T14:26:21.169Z,101503.34
2022-09-06T14:28:49.091Z,101501.22
2022-09-06T14:31:19.597Z,101493.38
2022-09-06T14:33:47.693Z,101493.38
2022-09-06T14:36:17.364Z,101487.69
2022-09-06T14:38:48.085Z,101483.22
2022-09-06T14:41:17.800Z,101484.19
2022-09-06T14:43:49.159Z,101490.03
2022-09-06T14:46:18.269Z,101470.03
2022-09-06T14:48:46.681Z,101480.19
2022-09-06T14:51:19.369Z,101472.66
2022-09-06T14:53:50.199Z,101469.97
2022-09-06T14:56:18.187Z,101463.78
2022-09-06T14:58:46.578Z,101462.66
2022-09-06T15:01:16.639Z,101468.19
2022-09-06T15:03:46.701Z,101490.19
2022-09-06T15:06:14.554Z,101461.41
2022-09-06T15:08:42.739Z,101465.53
2022-09-06T15:11:12.570Z,101478.22
2022-09-06T15:13:41.519Z,101460.53
2022-09-06T15:16:11.625Z,101466.34
2022-09-06T15:18:39.461Z,101464.22
2022-09-06T15:21:10.985Z,101453.88
2022-09-06T15:23:40.025Z,101449.88
2022-09-06T15:26:09.089Z,101440.91
2022-09-06T15:28:39.448Z,101441.56
2022-09-06T15:31:08.587Z,101439.38
2022-09-06T15:33:38.647Z,101439.22
2022-09-06T15:36:08.953Z,101437.25
2022-09-06T15:38:38.151Z,101434.06
2022-09-06T15:41:08.280Z,101433.59
2022-09-06T15:43:40.722Z,101430.44
2022-09-06T15:46:09.278Z,101436.13
2022-09-06T15:48:43.054Z,101428.63
2022-09-06T15:51:11.368Z,101427.97
2022-09-06T15:53:39.606Z,101433.63
2022-09-06T15:56:08.483Z,101428.47
2022-09-06T15:58:36.156Z,101431.13
2022-09-06T16:01:08.204Z,101427.97
2022-09-06T16:03:42.016Z,101427.00
2022-09-06T16:06:28.088Z,101429.50
2022-09-06T16:08:59.331Z,101427.00
2022-09-06T16:11:28.446Z,101419.84
2022-09-06T16:13:56.321Z,101418.16
2022-09-06T16:16:25.788Z,101417.66
2022-09-06T16:18:53.767Z,101415.50
2022-09-06T16:21:24.553Z,101417.19
2022-09-06T16:23:54.459Z,101413.22
2022-09-06T16:26:23.442Z,101419.53
2022-09-06T16:28:52.605Z,101413.53
2022-09-06T16:31:21.995Z,101418.38
2022-09-06T16:33:53.858Z,101413.22
2022-09-06T16:36:22.446Z,101408.56
2022-09-06T16:38:50.683Z,101415.53
2022-09-06T16:41:20.427Z,101415.88
2022-09-06T16:43:49.619Z,101419.03
2022-09-06T16:46:17.732Z,101414.53
2022-09-06T16:48:53.155Z,101416.72
2022-09-06T16:51:22.991Z,101416.72
2022-09-06T16:53:52.018Z,101419.03
2022-09-06T16:56:21.472Z,101411.38
2022-09-06T16:58:53.466Z,101414.03
2022-09-06T17:01:22.652Z,101412.88
2022-09-06T17:03:51.230Z,101410.19
2022-09-06T17:06:21.654Z,101411.53
2022-09-06T17:08:49.702Z,101406.38
2022-09-06T17:11:19.453Z,101399.22
2022-09-06T17:13:49.431Z,101404.53
2022-09-06T17:16:35.633Z,101408.22
2022-09-06T17:19:04.601Z,101402.72
2022-09-06T17:21:34.554Z,101398.38
2022-09-06T17:24:04.714Z,101397.72
2022-09-06T17:26:34.607Z,101400.03
2022-09-06T17:29:02.509Z,101405.69
2022-09-06T17:31:30.449Z,101404.00
2022-09-06T17:33:59.583Z,101398.84
2022-09-06T17:36:30.489Z,101407.16
2022-09-06T17:39:05.209Z,101406.00
2022-09-06T17:41:37.749Z,101407.69
2022-09-06T17:44:06.795Z,101403.00
2022-09-06T17:46:34.620Z,101406.00
2022-09-06T17:49:02.523Z,101402.34
2022-09-06T17:51:30.307Z,101397.34
2022-09-06T17:53:58.422Z,101402.81
2022-09-06T17:56:27.853Z,101400.50
2022-09-06T17:58:57.456Z,101395.66
2022-09-06T18:01:26.779Z,101401.63
2022-09-06T18:03:54.598Z,101403.28
2022-09-06T18:06:24.984Z,101400.78
2022-09-06T18:08:54.572Z,101401.78
2022-09-06T18:11:24.888Z,101414.22
2022-09-06T18:13:59.101Z,101417.19
2022-09-06T18:16:28.076Z,101412.03
2022-09-06T18:18:57.509Z,101416.66
2022-09-06T18:21:26.891Z,101414.59
2022-09-06T18:23:55.340Z,101417.94
2022-09-06T18:26:23.558Z,101424.72
2022-09-06T18:28:53.064Z,101421.91
2022-09-06T18:31:25.489Z,101424.28
2022-09-06T18:33:53.966Z,101429.28
2022-09-06T18:36:22.624Z,101428.47
2022-09-06T18:38:50.516Z,101432.09
2022-09-06T18:41:32.260Z,101436.72
2022-09-06T18:44:02.557Z,101423.09
2022-09-06T18:46:32.735Z,101428.22
2022-09-06T18:49:01.089Z,101418.19
2022-09-06T18:51:29.546Z,101414.88
2022-09-06T18:53:59.332Z,101424.81
2022-09-06T18:56:28.204Z,101420.00
2022-09-06T18:58:58.139Z,101414.13
2022-09-06T19:01:28.471Z,101419.09
2022-09-06T19:03:58.814Z,101418.28
2022-09-06T19:06:28.885Z,101416.94
2022-09-06T19:08:59.574Z,101420.31
2022-09-06T19:11:29.403Z,101416.94
2022-09-06T19:13:59.622Z,101408.63
2022-09-06T19:16:29.080Z,101412.75
2022-09-06T19:19:03.053Z,101408.88
2022-09-06T19:21:30.902Z,101417.81
2022-09-06T19:24:02.177Z,101415.63
2022-09-06T19:26:32.125Z,101418.94
2022-09-06T19:29:02.105Z,101413.47
2022-09-06T19:31:33.125Z,101416.13
2022-09-06T19:34:03.123Z,101412.97
2022-09-06T19:36:31.961Z,101413.44
2022-09-06T19:39:03.931Z,101423.16
2022-09-06T19:41:34.255Z,101427.66
2022-09-06T19:44:05.473Z,101420.50
2022-09-06T19:46:33.578Z,101422.34
2022-09-06T19:49:03.333Z,101414.28
2022-09-06T19:51:31.757Z,101399.63
2022-09-06T19:53:59.954Z,101399.13
2022-09-06T19:56:30.127Z,101398.44
2022-09-06T19:59:01.511Z,101404.06
2022-09-06T20:01:32.772Z,101394.13
2022-09-06T20:04:07.002Z,101390.50
2022-09-06T20:06:35.980Z,101400.09
2022-09-06T20:09:06.426Z,101400.25
2022-09-06T20:11:35.849Z,101398.91
2022-09-06T20:14:04.090Z,101404.66
2022-09-06T20:16:32.752Z,101401.50
2022-09-06T20:19:02.888Z,101402.78
2022-09-06T20:21:31.460Z,101402.41
2022-09-06T20:24:00.479Z,101402.41
2022-09-06T20:26:31.377Z,101397.94
2022-09-06T20:29:00.571Z,101399.22
2022-09-06T20:31:29.394Z,101403.03
2022-09-06T20:33:59.314Z,101391.72
2022-09-06T20:36:28.948Z,101395.53
2022-09-06T20:38:58.472Z,101396.34
2022-09-06T20:41:27.635Z,101396.34
2022-09-06T20:43:57.460Z,101393.03
2022-09-06T20:46:27.113Z,101391.94
2022-09-06T20:48:57.714Z,101387.56
2022-09-06T20:51:26.035Z,101381.88
2022-09-06T20:53:56.613Z,101382.47
2022-09-06T20:56:26.101Z,101373.16
2022-09-06T20:58:56.267Z,101377.91
2022-09-06T21:01:26.221Z,101361.63
2022-09-06T21:03:55.602Z,101366.53
2022-09-06T21:06:24.385Z,101355.91
2022-09-06T21:08:52.868Z,101355.66
2022-09-06T21:11:22.198Z,101354.94
2022-09-06T21:13:51.451Z,101353.41
2022-09-06T21:16:24.239Z,101350.22
2022-09-06T21:18:53.661Z,101351.06
2022-09-06T21:21:22.239Z,101356.34
2022-09-06T21:23:50.780Z,101360.69
2022-09-06T21:26:19.032Z,101356.34
2022-09-06T21:28:48.201Z,101344.13
2022-09-06T21:31:17.805Z,101351.22
2022-09-06T21:33:48.583Z,101353.63
2022-09-06T21:36:18.521Z,101343.78
2022-09-06T21:38:47.914Z,101347.69
2022-09-06T21:41:17.434Z,101349.38
2022-09-06T21:43:45.820Z,101347.41
2022-09-06T21:46:18.271Z,101344.22
2022-09-06T21:48:48.466Z,101340.03
2022-09-06T21:51:19.278Z,101329.91
2022-09-06T21:53:48.699Z,101337.00
2022-09-06T21:56:19.599Z,101326.72
2022-09-06T21:58:50.949Z,101323.66
2022-09-06T22:01:20.670Z,101327.63
2022-09-06T22:03:48.608Z,101320.63
2022-09-06T22:06:18.249Z,101308.69
2022-09-06T22:08:46.129Z,101309.81
2022-09-06T22:11:15.321Z,101310.63
2022-09-06T22:13:44.031Z,101299.88
2022-09-06T22:16:13.666Z,101307.16
2022-09-06T22:18:42.946Z,101305.47
2022-09-06T22:21:12.860Z,101298.38
2022-09-06T22:23:40.905Z,101299.34
2022-09-06T22:26:11.518Z,101292.56
2022-09-06T22:28:40.278Z,101278.91
2022-09-06T22:31:09.152Z,101282.41
2022-09-06T22:33:37.303Z,101282.41
2022-09-06T22:36:07.559Z,101287.84
2022-09-06T22:38:35.408Z,101296.59
2022-09-06T22:41:03.228Z,101295.50
2022-09-06T22:43:31.346Z,101287.84
2022-09-06T22:46:04.619Z,101287.84
2022-09-06T22:48:32.751Z,101278.06
2022-09-06T22:51:01.247Z,101273.34
2022-09-06T22:53:31.524Z,101268.69
2022-09-06T22:55:59.478Z,101271.47
2022-09-06T22:58:28.072Z,101273.81
2022-09-06T23:00:56.646Z,101272.00
2022-09-06T23:03:24.904Z,101269.34
2022-09-06T23:05:52.580Z,101269.22
2022-09-06T23:08:20.438Z,101263.09
2022-09-06T23:10:49.546Z,101261.69
2022-09-06T23:13:17.303Z,101264.78
2022-09-06T23:15:46.177Z,101268.28
2022-09-06T23:18:14.482Z,101258.16
2022-09-06T23:20:42.238Z,101262.44
2022-09-06T23:23:10.061Z,101260.94
2022-09-06T23:25:38.789Z,101265.22
2022-09-06T23:28:08.073Z,101262.44
2022-09-06T23:30:38.343Z,101256.31
2022-09-06T23:33:06.777Z,101265.41
2022-09-06T23:35:34.659Z,101255.63
2022-09-06T23:38:02.526Z,101265.41
2022-09-06T23:40:30.393Z,101256.19
2022-09-06T23:42:58.314Z,101258.56
2022-09-06T23:45:27.679Z,101263.72
2022-09-06T23:47:55.381Z,101265.34
2022-09-06T23:50:23.128Z,101270.66
2022-09-06T23:52:51.075Z,101268.19
2022-09-06T23:55:18.918Z,101268.19
2022-09-06T23:57:46.679Z,101274.31
